NCAR-RAP Real-Time Weather Data

Output produced by METARs form (24 April 2018  16:17 UTC)
found at http://weather.rap.ucar.edu/surface/
 
RJBB 241600Z AUTO 15010KT 9999 -RA FEW014 BKN021 OVC040 19/18 Q1000 TEMPO 4000 SHRA BR FEW005 SCT008 BKN012
RJBB 241530Z AUTO 16010KT 9999 -RA FEW021 SCT034 BKN042 19/18 Q1001 TEMPO 4000 SHRA BR
RJBB 241512Z AUTO 17013KT 7000 -RA FEW022 SCT032 BKN043 19/18 Q1001 RMK A2958
RJBB 241500Z AUTO 18013KT 3500 -RA BR FEW033 SCT041 BKN050 //////TCU 19/18 Q1002 NOSIG
RJBB 241441Z AUTO 18017KT 6000 -RA SCT034 SCT038 BKN080 19/18 Q1002 RMK A2961
RJBB 241436Z AUTO 18017KT 4700 -RA BR FEW035 SCT043 BKN080 //////TCU 20/18 Q1002 RMK A2961 TCU 30KM NE MOV NE
RJBB 241430Z AUTO 18016KT 2400 -RA BR FEW034 SCT038 BKN080 //////TCU 20/18 Q1003 TEMPO 4000 SHRA BR
RJBB 241426Z AUTO 18017KT 3900 -RA BR FEW033 SCT036 BKN038 //////TCU 20/18 Q1003 RMK A2962 TCU 10KM NE MOV NE
RJBB 241413Z AUTO 18019KT 6000 -RA FEW033 SCT044 BKN100 //////TCU 20/18 Q1003 RMK A2964 TCU 5KM N-E MOV NE
RJBB 241405Z AUTO 19016KT 4300 -RA BR FEW033 SCT040 BKN044 //////TCU 20/18 Q1003 RMK A2964 TCU 5KM NW-E MOV E
RJBB 241400Z AUTO 19016KT 6000 -RA FEW033 SCT040 BKN042 //////TCU 20/18 Q1003 TEMPO 4000 SHRA BR
RJBB 241330Z 19017KT 9999 -SHRA FEW007 BKN020 BKN030 20/18 Q1004 TEMPO 4000 SHRA BR
RJBB 241300Z 19019KT 9999 -SHRA FEW008 BKN020 BKN030 20/18 Q1004 TEMPO 4000 SHRA BR
RJBB 241230Z 19020KT 9999 -SHRA FEW008 BKN020 20/18 Q1005 TEMPO SHRA
RJBB 241200Z 18012KT 9999 -SHRA FEW010 BKN020 20/17 Q1005 NOSIG
RJBB 241130Z 18012KT 9999 FEW010 BKN025 20/17 Q1005 NOSIG
RJBB 241100Z 16009KT 9999 -SHRA FEW007 SCT025 BKN035 19/17 Q1005 NOSIG
RJBB 241030Z 17012KT 9999 -SHRA FEW007 SCT025 BKN035 19/17 Q1005 NOSIG
RJBB 241000Z 15008KT 9999 -SHRA FEW007 SCT035 BKN045 19/17 Q1005 TEMPO SHRA
RJBB 240930Z 16010KT 9999 -SHRA FEW007 SCT035 BKN045 19/17 Q1006 TEMPO 4000 SHRA BR
RJBB 240900Z 16010KT 120V180 9000 -SHRA FEW005 SCT035 BKN045 18/17 Q1006 TEMPO 4000 SHRA BR
RJBB 240830Z 10005KT 8000 R06R/P2000N R06L/P2000N -SHRA FEW005 SCT025 BKN035 18/17 Q1007 TEMPO SHRA
RJBB 240800Z 08005KT 9999 -SHRA FEW005 BKN035 BKN045 17/17 Q1007 NOSIG
RJBB 240730Z 07004KT 040V100 9999 -SHRA FEW025 SCT035 BKN045 17/17 Q1007 NOSIG
RJBB 240700Z 05008KT 9999 -SHRA FEW005 SCT025 BKN035 18/17 Q1008 NOSIG
RJBB 240630Z 05007KT 9999 -SHRA FEW005 SCT025 BKN035 18/17 Q1008 NOSIG
RJBB 240600Z 03006KT 9999 -SHRA FEW005 SCT025 BKN035 18/17 Q1008 NOSIG
RJBB 240530Z 07006KT 9999 -SHRA FEW020 SCT025 BKN035 18/17 Q1008 NOSIG
RJBB 240500Z 11008KT 8000 -SHRA FEW020 SCT030 BKN040 18/17 Q1009 NOSIG
RJBB 240441Z 13009KT 8000 -SHRA FEW020 SCT030 BKN040 18/16 Q1009 RMK 1CU020 3CU030 7CU040 A2982
RJBB 240430Z 14011KT 8000 SHRA FEW020 SCT030 BKN040 18/16 Q1009 BECMG 18015KT
RJBB 240400Z 16010KT 6000 SHRA BR FEW020 BKN030 18/16 Q1010 NOSIG
RJBB 240330Z 18012KT 6000 -SHRA BR FEW020 BKN030 18/17 Q1011 TEMPO SHRA
RJBB 240320Z 18010KT 6000 SHRA BR FEW020 BKN030 18/16 Q1011 RMK 1CU020 7CU030 A2986
RJBB 240300Z 19012KT 6000 -SHRA BR FEW020 BKN030 18/16 Q1011 TEMPO SHRA
RJBB 240230Z 19010KT 6000 -SHRA BR FEW025 BKN040 19/16 Q1011 TEMPO SHRA
RJBB 240216Z 19010KT 6000 R24L/P2000N R24R/P2000N SHRA BR FEW025 BKN040 18/16 Q1012 RMK 1CU025 7CU040 A2988
RJBB 240200Z 20013KT 9999 -SHRA FEW025 BKN040 BKN080 19/16 Q1012 NOSIG
RJBB 240130Z 19014KT 9999 -SHRA FEW025 BKN040 BKN080 19/15 Q1012 NOSIG
RJBB 240111Z 19015G25KT 9999 -SHRA FEW025 BKN040 BKN100 20/15 Q1012 RMK 1CU025 5CU040 7AC100 A2989
RJBB 240100Z 18016KT 9999 -SHRA FEW025 BKN040 BKN100 20/15 Q1012 NOSIG
RJBB 240030Z 17017KT 9999 FEW025 SCT040 BKN060 20/15 Q1012 NOSIG
RJBB 240000Z 17010KT 9999 FEW025 SCT040 BKN060 21/15 Q1012 NOSIG
RJBB 232330Z 16009KT 9999 FEW025 BKN060 BKN100 20/14 Q1012 NOSIG
RJBB 232300Z 16009KT 9999 FEW025 BKN060 BKN100 20/14 Q1012 NOSIG
RJBB 232230Z 18012KT 9999 FEW025 SCT060 BKN100 20/14 Q1013 NOSIG
RJBB 232200Z 16009KT 9999 FEW025 BKN060 BKN100 20/14 Q1013 NOSIG
RJBB 232130Z 17013KT 9999 FEW025 BKN060 BKN120 20/14 Q1013 NOSIG
RJBB 232100Z 17010KT 9999 FEW025 BKN060 BKN140 20/14 Q1013 NOSIG
RJBB 232030Z AUTO 18010KT 9999 NSC 20/14 Q1013 NOSIG
RJBB 232000Z AUTO 16009KT 9999 FEW045 SCT047 BKN080 19/14 Q1013 NOSIG
RJBB 231930Z AUTO 17009KT 9999 SCT048 SCT090 BKN100 19/14 Q1013 NOSIG
RJBB 231900Z AUTO 17007KT 9999 FEW048 SCT050 BKN100 19/14 Q1013 NOSIG
RJBB 231830Z AUTO 17011KT 9999 FEW048 BKN100 OVC150 19/14 Q1014 NOSIG
RJBB 231800Z AUTO 17007KT 9999 BKN048 OVC120 19/14 Q1014 NOSIG
RJBB 231730Z AUTO 15006KT 9999 SCT046 SCT050 BKN110 19/14 Q1014 NOSIG
RJBB 231700Z AUTO 15007KT 9999 FEW046 SCT150 19/14 Q1014 NOSIG
RJBB 231630Z AUTO 17008KT 9999 NSC 19/15 Q1015 NOSIG
RJBB 231600Z AUTO 16008KT 9999 NSC 19/15 Q1015 NOSIG
RJBB 231530Z AUTO 17010KT 9999 NCD 20/14 Q1015 NOSIG
RJBB 231500Z AUTO 16008KT 9999 NCD 19/14 Q1016 NOSIG
RJBB 231430Z AUTO 17011KT 9999 NCD 19/14 Q1016 NOSIG
RJBB 231400Z AUTO 17010KT 9999 NCD 19/14 Q1016 NOSIG
RJBB 231330Z 17010KT 9999 FEW040 SCT/// 19/14 Q1017 NOSIG
RJBB 231300Z 17011KT 9999 FEW040 19/14 Q1017 NOSIG
RJBB 231230Z 18012KT 9999 FEW040 BKN/// 20/13 Q1017 NOSIG
RJBB 231200Z 18008KT 9999 FEW040 SCT150 BKN/// 20/13 Q1017 NOSIG
RJBB 231130Z 18008KT 9999 FEW040 SCT150 BKN/// 19/13 Q1017 NOSIG
RJBB 231100Z 19009KT 9999 FEW040 BKN150 BKN/// 19/13 Q1017 NOSIG
RJBB 231030Z 20012KT 9999 FEW040 SCT140 BKN/// 19/13 Q1017 NOSIG
RJBB 231000Z 20012KT 9999 FEW030 BKN160 BKN/// 20/13 Q1016 NOSIG
RJBB 230930Z 21013KT 9999 FEW030 BKN180 BKN/// 19/13 Q1016 NOSIG
RJBB 230900Z 22013KT 9999 FEW030 BKN180 BKN/// 20/13 Q1016 NOSIG
RJBB 230830Z 22015KT 9999 FEW035 SCT160 BKN/// 20/13 Q1015 NOSIG
RJBB 230800Z 22015KT 9999 FEW040 SCT160 BKN/// 21/13 Q1015 NOSIG
RJBB 230730Z 22016KT 9999 FEW040 SCT180 BKN/// 21/13 Q1015 NOSIG
RJBB 230700Z 22015KT 9999 FEW040 BKN/// 22/13 Q1015 NOSIG
RJBB 230630Z 22017KT 9999 FEW035 BKN/// 23/13 Q1015 NOSIG
RJBB 230600Z 23016KT 9999 FEW040 BKN/// 24/13 Q1015 NOSIG
RJBB 230530Z 23016KT 9999 FEW040 BKN/// 24/13 Q1016 NOSIG
RJBB 230500Z 22017KT 9999 FEW035 BKN/// 23/13 Q1016 NOSIG
RJBB 230430Z 22018KT 9999 FEW035 BKN/// 22/13 Q1016 NOSIG
RJBB 230400Z 22017KT 9999 FEW040 BKN/// 23/13 Q1017 NOSIG
RJBB 230330Z 22015KT 9999 FEW040 BKN/// 23/13 Q1017 NOSIG
RJBB 230300Z 23015KT 9999 FEW040 BKN/// 22/14 Q1017 NOSIG
RJBB 230230Z 25010KT 9999 FEW040 BKN/// 23/14 Q1017 NOSIG
RJBB 230228Z 26010KT 240V300 9999 FEW040 BKN/// 23/13 Q1017 RMK 1CU040 A3006
RJBB 230200Z 33006KT 280V340 9999 FEW040 BKN/// 22/13 Q1018 BECMG 26008KT
RJBB 230130Z 34004KT 9999 FEW035 BKN/// 21/13 Q1018 NOSIG
RJBB 230100Z 36005KT 9999 FEW035 BKN/// 22/14 Q1018 NOSIG
RJBB 230030Z 33005KT 9999 FEW035 BKN/// 21/14 Q1019 BECMG 26008KT
RJBB 230000Z VRB02KT 9999 FEW030 BKN/// 20/13 Q1019 BECMG 26005KT
RJBB 222330Z 01003KT 9999 FEW040 SCT/// 20/13 Q1019 NOSIG
RJBB 222300Z 36003KT CAVOK 19/14 Q1019 NOSIG
RJBB 222230Z VRB02KT CAVOK 18/13 Q1019 NOSIG
RJBB 222200Z 13003KT CAVOK 17/13 Q1019 NOSIG
RJBB 222130Z 11003KT CAVOK 17/14 Q1019 NOSIG
RJBB 222100Z 00000KT CAVOK 16/13 Q1019 NOSIG
RJBB 222030Z AUTO VRB01KT 9999 NSC 16/14 Q1018 NOSIG
RJBB 222000Z AUTO 13005KT 9999 NSC 17/13 Q1018 NOSIG
RJBB 221930Z AUTO 14006KT 9999 NCD 17/14 Q1018 BECMG 12004KT
RJBB 221900Z AUTO 14005KT 9999 NCD 16/14 Q1018 BECMG 12004KT
RJBB 221830Z AUTO 14004KT 9999 NCD 16/14 Q1018 NOSIG
RJBB 221800Z AUTO 14002KT 9999 NCD 16/14 Q1018 NOSIG
RJBB 221730Z AUTO 02002KT 8000 NCD 16/14 Q1018 NOSIG
RJBB 221700Z AUTO VRB02KT 6000 NCD 17/14 Q1018 NOSIG
RJBB 221630Z AUTO VRB01KT 9999 NCD 17/14 Q1018 NOSIG
RJBB 221600Z AUTO 10001KT 9999 NSC 17/14 Q1018 NOSIG
RJBB 221530Z AUTO 10004KT 9999 NSC 17/14 Q1018 NOSIG
RJBB 221500Z AUTO 13003KT 090V210 9999 NSC 17/14 Q1018 NOSIG
RJBB 221430Z AUTO 15003KT 9999 NSC 17/14 Q1018 NOSIG
RJBB 221400Z AUTO 15003KT 9999 NSC 17/14 Q1018 NOSIG
RJBB 221330Z 12003KT CAVOK 18/14 Q1019 NOSIG
RJBB 221300Z 19003KT 160V240 CAVOK 18/14 Q1019 NOSIG
RJBB 221230Z 21007KT CAVOK 18/13 Q1019 NOSIG
RJBB 221200Z 20009KT CAVOK 18/14 Q1018 NOSIG
RJBB 221130Z 20009KT CAVOK 17/13 Q1018 NOSIG
RJBB 221100Z 20011KT CAVOK 19/13 Q1018 NOSIG
RJBB 221030Z 21013KT CAVOK 19/13 Q1017 NOSIG
RJBB 221000Z 21013KT CAVOK 19/12 Q1017 NOSIG
RJBB 220930Z 21013KT CAVOK 19/13 Q1017 NOSIG
RJBB 220900Z 21015KT CAVOK 20/13 Q1017 NOSIG
RJBB 220830Z 21012KT CAVOK 20/13 Q1017 NOSIG
RJBB 220800Z 22013KT CAVOK 21/13 Q1017 NOSIG
RJBB 220730Z 22012KT CAVOK 21/12 Q1017 NOSIG
RJBB 220700Z 22012KT CAVOK 23/11 Q1017 NOSIG
RJBB 220630Z 23013KT CAVOK 23/10 Q1017 NOSIG
RJBB 220600Z 23012KT CAVOK 23/11 Q1018 NOSIG
RJBB 220530Z 23013KT 9999 FEW040 BKN/// 22/11 Q1018 NOSIG
RJBB 220500Z 24012KT 9999 FEW035 BKN/// 22/12 Q1018 NOSIG
RJBB 220430Z 25011KT 9999 FEW035 BKN/// 22/12 Q1019 NOSIG